TimeCDT,TemperatureF,Dew PointF,Humidity,Sea Level PressureIn,VisibilityMPH,Wind Direction,Wind SpeedMPH,Gust SpeedMPH,PrecipitationIn,Events,Conditions,WindDirDegrees,DateUTC
12:58 AM,43.5,36.5,76,29.94,10.0,SE,9.2,-,N/A,,Clear,130,2014-03-31 05:58:00
1:58 AM,43.9,36.7,76,29.92,10.0,SE,10.4,-,N/A,,Clear,130,2014-03-31 06:58:00
2:58 AM,43.2,36.7,78,29.92,10.0,ESE,9.2,-,N/A,,Clear,120,2014-03-31 07:58:00
3:58 AM,43.0,36.9,79,29.90,10.0,SE,10.4,-,N/A,,Clear,130,2014-03-31 08:58:00
4:58 AM,43.0,36.7,78,29.88,10.0,SE,11.5,-,N/A,,Clear,130,2014-03-31 09:58:00
5:58 AM,42.8,36.5,78,29.87,10.0,SE,10.4,-,N/A,,Partly Cloudy,130,2014-03-31 10:58:00
6:58 AM,42.8,36.5,78,29.86,10.0,ESE,11.5,-,N/A,,Scattered Clouds,120,2014-03-31 11:58:00
7:58 AM,44.6,37.4,76,29.86,10.0,SE,9.2,-,N/A,,Overcast,130,2014-03-31 12:58:00
8:58 AM,46.4,37.4,71,29.86,10.0,SE,11.5,-,N/A,,Overcast,130,2014-03-31 13:58:00
9:58 AM,48.2,37.4,66,29.85,10.0,ESE,10.4,-,N/A,,Overcast,120,2014-03-31 14:58:00
10:58 AM,51.8,37.4,58,29.83,10.0,SE,9.2,-,N/A,,Overcast,130,2014-03-31 15:58:00
11:58 AM,55.4,39.2,54,29.78,10.0,SE,13.8,-,N/A,,Mostly Cloudy,140,2014-03-31 16:58:00
12:58 PM,55.4,39.2,54,29.74,10.0,SSE,11.5,20.7,N/A,,Overcast,150,2014-03-31 17:58:00
1:58 PM,60.8,41.0,48,29.70,10.0,SE,18.4,25.3,N/A,,Mostly Cloudy,130,2014-03-31 18:58:00
2:58 PM,62.6,41.0,45,29.66,10.0,SE,17.3,27.6,N/A,,Mostly Cloudy,140,2014-03-31 19:58:00
3:58 PM,66.2,42.8,43,29.60,10.0,SSE,20.7,26.5,N/A,,Mostly Cloudy,150,2014-03-31 20:58:00
4:58 PM,64.4,41.0,42,29.57,10.0,SE,24.2,32.2,N/A,,Mostly Cloudy,140,2014-03-31 21:58:00
5:58 PM,62.6,41.0,45,29.55,10.0,SSE,16.1,29.9,N/A,,Mostly Cloudy,160,2014-03-31 22:58:00
6:58 PM,62.6,41.0,45,29.56,10.0,SSE,15.0,24.2,N/A,,Mostly Cloudy,150,2014-03-31 23:58:00
7:58 PM,59.0,41.0,51,29.55,10.0,SE,10.4,-,N/A,,Mostly Cloudy,140,2014-04-01 00:58:00
8:58 PM,55.4,41.0,58,29.56,10.0,ESE,8.1,-,N/A,,Mostly Cloudy,120,2014-04-01 01:58:00
9:38 PM,57.2,41.0,55,29.53,10.0,SSE,13.8,-,N/A,,Light Drizzle,150,2014-04-01 02:38:00
9:47 PM,57.2,41.0,55,29.53,10.0,SSE,15.0,21.9,N/A,,Mostly Cloudy,150,2014-04-01 02:47:00
9:58 PM,57.2,41.0,55,29.54,10.0,SE,12.7,23.0,N/A,,Mostly Cloudy,140,2014-04-01 02:58:00
10:58 PM,57.2,41.0,55,29.51,10.0,South,13.8,19.6,N/A,,Mostly Cloudy,180,2014-04-01 03:58:00
11:58 PM,54.9,41.5,61,29.51,10.0,SSW,18.4,23.0,N/A,,Partly Cloudy,210,2014-04-01 04:58:00